ESNS

Details ICAO ESNS (SFT)
Name Skelleftea
Region Sweden
Timezone Europe/Stockholm (UTC+1.0)
Plans Departing 15
Arriving 14
Stats Elevation 155 ft / 47 m (AMSL)
Location 64.624772° 21.076867°
Runways 1
Magnetic Variation 8.560° E
Sunrise 2017-12-18 08:37:48 UTC / 2017-12-18 09:37:48 Local
Sunset 2017-12-18 12:29:27 UTC / 2017-12-18 13:29:27 Local
Advertisement - Login to hide

Runways

ID Width Length Bearing (true) Bearing (mag) Surface Threshold Offset Overrun Length
10 148 ft / 45 m 6,872 ft / 2,095 m 106.26° 97.70° Asphalt 0 ft / 0 m 0 ft / 0 m
28 148 ft / 45 m 6,872 ft / 2,095 m 286.30° 277.74° Asphalt 0 ft / 0 m 0 ft / 0 m

Approach Navaids

Runway Type Ident Frequency Range Bearing (true) Bearing (mag) Slope Elevation
28 Localiser NS 109.50 MHz 18 nm / 33 km 286.26° 277.70° - 155 ft / 47 m (AMSL)
28 Glidescope NS 109.50 MHz 10 nm / 19 km 286.28° 277.72° 3.00° 155 ft / 47 m (AMSL)

Map

Weather


0- 5 10 15 20 25 30 35+ Temperature / ° C

Clouds and Precipitation
Forecast for 2017-12-18 06:00 UTC. Updated 30 minutes ago

Ground ~20,000 ft ~40,000 ft Winds

METAR

ESNS 180120Z AUTO 26004KT 9999 BKN098/// M09/M10 Q1006

TAF

Not found

Frequencies

Tower 122.05 MHz TWR
Warning: Do not use this data for real-world aviation or navigation. No guarantee of current accuracy is given.